sensor_id;sensor_type;location;lat;lon;timestamp;temperature;humidity
13446;DHT22;6795;51.232;3.764;2023-04-03T00:01:22;1.00;99.90
13446;DHT22;6795;51.232;3.764;2023-04-03T00:03:51;1.10;99.90
13446;DHT22;6795;51.232;3.764;2023-04-03T00:06:21;1.30;99.90
13446;DHT22;6795;51.232;3.764;2023-04-03T00:08:50;1.20;99.90
13446;DHT22;6795;51.232;3.764;2023-04-03T00:11:19;1.10;99.90
13446;DHT22;6795;51.232;3.764;2023-04-03T00:13:48;1.00;99.90
13446;DHT22;6795;51.232;3.764;2023-04-03T00:16:17;1.00;99.90
13446;DHT22;6795;51.232;3.764;2023-04-03T00:18:45;1.10;99.90
13446;DHT22;6795;51.232;3.764;2023-04-03T00:21:14;1.20;99.90
13446;DHT22;6795;51.232;3.764;2023-04-03T00:23:44;1.20;99.90
13446;DHT22;6795;51.232;3.764;2023-04-03T00:26:12;1.20;99.90
13446;DHT22;6795;51.232;3.764;2023-04-03T00:28:41;1.20;99.90
13446;DHT22;6795;51.232;3.764;2023-04-03T00:31:09;1.30;99.90
13446;DHT22;6795;51.232;3.764;2023-04-03T00:33:38;1.50;99.90
13446;DHT22;6795;51.232;3.764;2023-04-03T00:36:07;1.60;99.90
13446;DHT22;6795;51.232;3.764;2023-04-03T00:38:36;1.50;99.90
13446;DHT22;6795;51.232;3.764;2023-04-03T00:41:06;1.50;99.90
13446;DHT22;6795;51.232;3.764;2023-04-03T00:43:35;1.50;99.90
13446;DHT22;6795;51.232;3.764;2023-04-03T00:46:04;1.40;99.90
13446;DHT22;6795;51.232;3.764;2023-04-03T00:48:34;1.10;99.90
13446;DHT22;6795;51.232;3.764;2023-04-03T00:51:06;1.10;99.90
13446;DHT22;6795;51.232;3.764;2023-04-03T00:53:38;1.00;99.90
13446;DHT22;6795;51.232;3.764;2023-04-03T00:56:11;0.90;99.90
13446;DHT22;6795;51.232;3.764;2023-04-03T00:58:44;0.90;99.90
13446;DHT22;6795;51.232;3.764;2023-04-03T01:01:17;1.00;99.90
13446;DHT22;6795;51.232;3.764;2023-04-03T01:03:49;1.00;99.90
13446;DHT22;6795;51.232;3.764;2023-04-03T01:06:23;0.80;99.90
13446;DHT22;6795;51.232;3.764;2023-04-03T01:08:53;0.70;99.90
13446;DHT22;6795;51.232;3.764;2023-04-03T01:11:23;0.60;99.90
13446;DHT22;6795;51.232;3.764;2023-04-03T01:13:52;0.70;99.90
13446;DHT22;6795;51.232;3.764;2023-04-03T01:16:20;0.80;99.90
13446;DHT22;6795;51.232;3.764;2023-04-03T01:18:49;0.80;99.90
13446;DHT22;6795;51.232;3.764;2023-04-03T01:21:49;0.70;99.90
13446;DHT22;6795;51.232;3.764;2023-04-03T01:24:35;0.70;99.90
13446;DHT22;6795;51.232;3.764;2023-04-03T01:27:09;0.70;99.90
13446;DHT22;6795;51.232;3.764;2023-04-03T01:29:40;0.70;99.90
13446;DHT22;6795;51.232;3.764;2023-04-03T01:32:12;0.60;99.90
13446;DHT22;6795;51.232;3.764;2023-04-03T01:34:40;0.50;99.90
13446;DHT22;6795;51.232;3.764;2023-04-03T01:37:08;0.50;99.90
13446;DHT22;6795;51.232;3.764;2023-04-03T01:39:37;0.60;99.90
13446;DHT22;6795;51.232;3.764;2023-04-03T01:42:05;0.80;99.90
13446;DHT22;6795;51.232;3.764;2023-04-03T01:44:33;1.00;99.90
13446;DHT22;6795;51.232;3.764;2023-04-03T01:47:02;1.10;99.90
13446;DHT22;6795;51.232;3.764;2023-04-03T01:49:34;1.00;99.90
13446;DHT22;6795;51.232;3.764;2023-04-03T01:52:03;1.10;99.90
13446;DHT22;6795;51.232;3.764;2023-04-03T01:54:31;1.20;99.90
13446;DHT22;6795;51.232;3.764;2023-04-03T01:57:00;1.20;99.90
13446;DHT22;6795;51.232;3.764;2023-04-03T01:59:28;1.10;99.90
13446;DHT22;6795;51.232;3.764;2023-04-03T02:01:57;1.10;99.90
13446;DHT22;6795;51.232;3.764;2023-04-03T02:04:25;0.90;99.90
13446;DHT22;6795;51.232;3.764;2023-04-03T02:06:55;0.90;99.90
13446;DHT22;6795;51.232;3.764;2023-04-03T02:09:23;0.90;99.90
13446;DHT22;6795;51.232;3.764;2023-04-03T02:11:53;0.90;99.90
13446;DHT22;6795;51.232;3.764;2023-04-03T02:14:21;1.10;99.90
13446;DHT22;6795;51.232;3.764;2023-04-03T02:16:50;1.10;99.90
13446;DHT22;6795;51.232;3.764;2023-04-03T02:19:19;1.10;99.90
13446;DHT22;6795;51.232;3.764;2023-04-03T02:21:47;1.10;99.90
13446;DHT22;6795;51.232;3.764;2023-04-03T02:24:17;1.10;99.90
13446;DHT22;6795;51.232;3.764;2023-04-03T02:26:45;1.10;99.90
13446;DHT22;6795;51.232;3.764;2023-04-03T02:29:14;1.20;99.90
13446;DHT22;6795;51.232;3.764;2023-04-03T02:31:42;1.20;99.90
13446;DHT22;6795;51.232;3.764;2023-04-03T02:34:11;1.20;99.90
13446;DHT22;6795;51.232;3.764;2023-04-03T02:36:39;1.20;99.90
13446;DHT22;6795;51.232;3.764;2023-04-03T02:39:08;1.10;99.90
13446;DHT22;6795;51.232;3.764;2023-04-03T02:41:38;0.90;99.90
13446;DHT22;6795;51.232;3.764;2023-04-03T02:44:08;0.70;99.90
13446;DHT22;6795;51.232;3.764;2023-04-03T02:46:37;0.70;99.90
13446;DHT22;6795;51.232;3.764;2023-04-03T02:49:06;0.70;99.90
13446;DHT22;6795;51.232;3.764;2023-04-03T02:51:34;0.60;99.90
13446;DHT22;6795;51.232;3.764;2023-04-03T02:54:03;0.60;99.90
13446;DHT22;6795;51.232;3.764;2023-04-03T02:56:31;0.50;99.90
13446;DHT22;6795;51.232;3.764;2023-04-03T02:59:02;0.50;99.90
13446;DHT22;6795;51.232;3.764;2023-04-03T03:01:30;0.60;99.90
13446;DHT22;6795;51.232;3.764;2023-04-03T03:03:59;0.60;99.90
13446;DHT22;6795;51.232;3.764;2023-04-03T03:06:28;0.60;99.90
13446;DHT22;6795;51.232;3.764;2023-04-03T03:08:56;0.70;99.90
13446;DHT22;6795;51.232;3.764;2023-04-03T03:11:25;0.70;99.90
13446;DHT22;6795;51.232;3.764;2023-04-03T03:13:53;0.80;99.90
13446;DHT22;6795;51.232;3.764;2023-04-03T03:16:23;1.00;99.90
13446;DHT22;6795;51.232;3.764;2023-04-03T04:45:46;0.90;99.90
13446;DHT22;6795;51.232;3.764;2023-04-03T04:48:14;0.00;99.90
13446;DHT22;6795;51.232;3.764;2023-04-03T04:50:43;-0.10;99.90
13446;DHT22;6795;51.232;3.764;2023-04-03T04:53:11;-0.10;99.90
13446;DHT22;6795;51.232;3.764;2023-04-03T05:03:38;-0.10;99.90
13446;DHT22;6795;51.232;3.764;2023-04-03T05:06:07;0.20;99.90
13446;DHT22;6795;51.232;3.764;2023-04-03T05:08:35;0.30;99.90
13446;DHT22;6795;51.232;3.764;2023-04-03T05:11:04;0.40;99.90
13446;DHT22;6795;51.232;3.764;2023-04-03T06:45:34;0.40;99.90
13446;DHT22;6795;51.232;3.764;2023-04-03T06:48:05;4.20;99.90
13446;DHT22;6795;51.232;3.764;2023-04-03T06:50:34;4.20;99.90
13446;DHT22;6795;51.232;3.764;2023-04-03T06:53:02;4.30;99.90
13446;DHT22;6795;51.232;3.764;2023-04-03T06:55:30;4.50;99.90
13446;DHT22;6795;51.232;3.764;2023-04-03T06:57:59;4.60;99.90
13446;DHT22;6795;51.232;3.764;2023-04-03T07:00:27;4.70;99.90
13446;DHT22;6795;51.232;3.764;2023-04-03T07:02:56;4.90;99.90
13446;DHT22;6795;51.232;3.764;2023-04-03T07:05:26;5.00;99.90
13446;DHT22;6795;51.232;3.764;2023-04-03T07:07:54;5.20;99.90
13446;DHT22;6795;51.232;3.764;2023-04-03T07:12:51;5.40;99.90
13446;DHT22;6795;51.232;3.764;2023-04-03T07:15:20;5.70;99.90
13446;DHT22;6795;51.232;3.764;2023-04-03T07:17:49;5.90;99.90
13446;DHT22;6795;51.232;3.764;2023-04-03T07:20:17;6.00;99.90
13446;DHT22;6795;51.232;3.764;2023-04-03T07:22:47;6.00;99.90
13446;DHT22;6795;51.232;3.764;2023-04-03T07:25:16;6.00;99.90
13446;DHT22;6795;51.232;3.764;2023-04-03T07:27:44;6.20;99.90
13446;DHT22;6795;51.232;3.764;2023-04-03T07:30:13;6.20;99.90
13446;DHT22;6795;51.232;3.764;2023-04-03T07:32:42;6.30;99.90
13446;DHT22;6795;51.232;3.764;2023-04-03T07:35:11;6.50;99.90
13446;DHT22;6795;51.232;3.764;2023-04-03T07:37:39;6.60;99.90
13446;DHT22;6795;51.232;3.764;2023-04-03T07:45:10;6.70;99.90
13446;DHT22;6795;51.232;3.764;2023-04-03T08:10:00;6.80;99.90
13446;DHT22;6795;51.232;3.764;2023-04-03T08:12:29;7.20;99.90
13446;DHT22;6795;51.232;3.764;2023-04-03T08:34:54;7.30;99.90
13446;DHT22;6795;51.232;3.764;2023-04-03T08:37:22;7.90;99.90
13446;DHT22;6795;51.232;3.764;2023-04-03T09:10:24;8.00;99.90
13446;DHT22;6795;51.232;3.764;2023-04-03T09:13:00;8.70;99.90
13446;DHT22;6795;51.232;3.764;2023-04-03T09:15:29;8.70;99.90
13446;DHT22;6795;51.232;3.764;2023-04-03T09:18:13;8.70;99.90
13446;DHT22;6795;51.232;3.764;2023-04-03T09:23:21;8.60;99.90
13446;DHT22;6795;51.232;3.764;2023-04-03T09:25:54;9.10;99.90
13446;DHT22;6795;51.232;3.764;2023-04-03T09:28:24;9.10;99.90
13446;DHT22;6795;51.232;3.764;2023-04-03T09:30:55;9.20;99.90
13446;DHT22;6795;51.232;3.764;2023-04-03T09:33:25;9.00;99.90
13446;DHT22;6795;51.232;3.764;2023-04-03T09:35:53;9.20;99.90
13446;DHT22;6795;51.232;3.764;2023-04-03T09:46:25;9.40;99.90
13446;DHT22;6795;51.232;3.764;2023-04-03T09:48:58;9.30;99.90
13446;DHT22;6795;51.232;3.764;2023-04-03T09:51:35;9.10;99.90
13446;DHT22;6795;51.232;3.764;2023-04-03T09:54:32;8.90;99.90
13446;DHT22;6795;51.232;3.764;2023-04-03T09:57:08;9.40;99.90
13446;DHT22;6795;51.232;3.764;2023-04-03T09:59:42;9.50;99.90
13446;DHT22;6795;51.232;3.764;2023-04-03T10:02:32;9.30;99.90
13446;DHT22;6795;51.232;3.764;2023-04-03T10:05:03;9.60;99.90
13446;DHT22;6795;51.232;3.764;2023-04-03T10:07:37;9.90;99.90
13446;DHT22;6795;51.232;3.764;2023-04-03T10:10:17;9.90;99.90
13446;DHT22;6795;51.232;3.764;2023-04-03T10:13:04;10.00;99.20
13446;DHT22;6795;51.232;3.764;2023-04-03T10:15:41;9.80;99.90
13446;DHT22;6795;51.232;3.764;2023-04-03T10:18:29;9.80;99.90
13446;DHT22;6795;51.232;3.764;2023-04-03T10:21:04;9.40;99.90
13446;DHT22;6795;51.232;3.764;2023-04-03T10:23:47;9.60;99.90
13446;DHT22;6795;51.232;3.764;2023-04-03T10:26:25;9.90;99.90
13446;DHT22;6795;51.232;3.764;2023-04-03T10:28:59;10.00;99.90
13446;DHT22;6795;51.232;3.764;2023-04-03T10:31:36;10.20;98.70
13446;DHT22;6795;51.232;3.764;2023-04-03T10:34:07;10.20;98.90
13446;DHT22;6795;51.232;3.764;2023-04-03T10:36:43;10.30;99.90
13446;DHT22;6795;51.232;3.764;2023-04-03T10:39:23;10.40;99.90
13446;DHT22;6795;51.232;3.764;2023-04-03T10:42:00;10.50;99.00
13446;DHT22;6795;51.232;3.764;2023-04-03T10:47:47;10.50;98.90
13446;DHT22;6795;51.232;3.764;2023-04-03T11:46:49;10.70;99.90
13446;DHT22;6795;51.232;3.764;2023-04-03T11:49:58;12.00;91.20
13446;DHT22;6795;51.232;3.764;2023-04-03T11:52:59;12.00;89.90
13446;DHT22;6795;51.232;3.764;2023-04-03T11:55:44;12.10;84.10
13446;DHT22;6795;51.232;3.764;2023-04-03T11:58:15;11.90;85.50
13446;DHT22;6795;51.232;3.764;2023-04-03T12:07:02;12.10;87.70
13446;DHT22;6795;51.232;3.764;2023-04-03T12:10:14;12.50;88.00
13446;DHT22;6795;51.232;3.764;2023-04-03T12:13:01;12.00;82.40
13446;DHT22;6795;51.232;3.764;2023-04-03T12:15:54;12.00;84.30
13446;DHT22;6795;51.232;3.764;2023-04-03T12:18:58;12.10;79.70
13446;DHT22;6795;51.232;3.764;2023-04-03T12:22:06;11.90;76.70
13446;DHT22;6795;51.232;3.764;2023-04-03T12:24:35;12.00;81.70
13446;DHT22;6795;51.232;3.764;2023-04-03T12:27:26;11.80;79.90
13446;DHT22;6795;51.232;3.764;2023-04-03T12:30:01;11.90;80.00
13446;DHT22;6795;51.232;3.764;2023-04-03T12:32:48;12.00;82.00
13446;DHT22;6795;51.232;3.764;2023-04-03T12:35:37;12.00;77.50
13446;DHT22;6795;51.232;3.764;2023-04-03T12:41:16;12.00;78.10
13446;DHT22;6795;51.232;3.764;2023-04-03T12:43:55;12.30;82.60
13446;DHT22;6795;51.232;3.764;2023-04-03T12:46:35;12.40;82.70
13446;DHT22;6795;51.232;3.764;2023-04-03T12:49:18;12.30;80.80
13446;DHT22;6795;51.232;3.764;2023-04-03T12:51:50;12.30;81.00
13446;DHT22;6795;51.232;3.764;2023-04-03T12:54:22;12.50;76.80
13446;DHT22;6795;51.232;3.764;2023-04-03T12:56:52;12.30;80.00
13446;DHT22;6795;51.232;3.764;2023-04-03T12:59:36;12.20;81.70
13446;DHT22;6795;51.232;3.764;2023-04-03T13:02:25;12.40;76.60
13446;DHT22;6795;51.232;3.764;2023-04-03T13:04:55;12.40;78.10
13446;DHT22;6795;51.232;3.764;2023-04-03T13:07:29;12.40;74.30
13446;DHT22;6795;51.232;3.764;2023-04-03T13:10:12;12.40;77.10
13446;DHT22;6795;51.232;3.764;2023-04-03T13:12:48;12.80;73.50
13446;DHT22;6795;51.232;3.764;2023-04-03T13:15:20;12.60;77.30
13446;DHT22;6795;51.232;3.764;2023-04-03T13:17:51;12.40;70.90
13446;DHT22;6795;51.232;3.764;2023-04-03T13:20:24;12.40;78.40
13446;DHT22;6795;51.232;3.764;2023-04-03T13:22:57;12.70;77.60
13446;DHT22;6795;51.232;3.764;2023-04-03T13:25:28;12.70;72.00
13446;DHT22;6795;51.232;3.764;2023-04-03T13:27:58;12.60;74.40
13446;DHT22;6795;51.232;3.764;2023-04-03T13:30:53;12.70;71.80
13446;DHT22;6795;51.232;3.764;2023-04-03T13:33:26;12.60;71.70
13446;DHT22;6795;51.232;3.764;2023-04-03T13:35:56;12.50;69.80
13446;DHT22;6795;51.232;3.764;2023-04-03T13:38:27;12.40;71.00
13446;DHT22;6795;51.232;3.764;2023-04-03T13:41:00;12.60;72.40
13446;DHT22;6795;51.232;3.764;2023-04-03T13:43:32;12.50;70.60
13446;DHT22;6795;51.232;3.764;2023-04-03T13:46:05;12.50;69.90
13446;DHT22;6795;51.232;3.764;2023-04-03T13:48:40;12.60;68.20
13446;DHT22;6795;51.232;3.764;2023-04-03T13:51:19;12.60;66.70
13446;DHT22;6795;51.232;3.764;2023-04-03T13:53:51;12.50;67.10
13446;DHT22;6795;51.232;3.764;2023-04-03T13:56:25;12.70;72.80
13446;DHT22;6795;51.232;3.764;2023-04-03T13:59:01;12.90;71.60
13446;DHT22;6795;51.232;3.764;2023-04-03T14:01:39;12.80;70.50
13446;DHT22;6795;51.232;3.764;2023-04-03T14:04:18;12.70;70.40
13446;DHT22;6795;51.232;3.764;2023-04-03T14:06:48;12.50;67.10
13446;DHT22;6795;51.232;3.764;2023-04-03T14:09:18;12.70;65.50
13446;DHT22;6795;51.232;3.764;2023-04-03T14:11:48;12.80;64.50
13446;DHT22;6795;51.232;3.764;2023-04-03T14:14:19;12.60;68.90
13446;DHT22;6795;51.232;3.764;2023-04-03T14:16:51;12.70;69.00
13446;DHT22;6795;51.232;3.764;2023-04-03T14:19:24;12.60;67.40
13446;DHT22;6795;51.232;3.764;2023-04-03T16:39:30;12.70;65.20
13446;DHT22;6795;51.232;3.764;2023-04-03T16:44:27;10.60;68.10
13446;DHT22;6795;51.232;3.764;2023-04-03T16:46:57;10.40;69.80
13446;DHT22;6795;51.232;3.764;2023-04-03T16:49:25;10.50;70.30
13446;DHT22;6795;51.232;3.764;2023-04-03T16:51:59;10.60;69.50
13446;DHT22;6795;51.232;3.764;2023-04-03T16:54:27;10.70;70.40
13446;DHT22;6795;51.232;3.764;2023-04-03T16:56:56;10.60;70.40
13446;DHT22;6795;51.232;3.764;2023-04-03T16:59:24;10.60;71.80
13446;DHT22;6795;51.232;3.764;2023-04-03T17:01:53;10.50;72.20
13446;DHT22;6795;51.232;3.764;2023-04-03T17:04:23;10.40;72.90
13446;DHT22;6795;51.232;3.764;2023-04-03T17:06:52;10.40;74.50
13446;DHT22;6795;51.232;3.764;2023-04-03T17:09:21;10.40;74.50
13446;DHT22;6795;51.232;3.764;2023-04-03T17:11:50;10.50;74.40
13446;DHT22;6795;51.232;3.764;2023-04-03T17:14:18;10.40;73.70
13446;DHT22;6795;51.232;3.764;2023-04-03T17:16:47;10.20;74.40
13446;DHT22;6795;51.232;3.764;2023-04-03T17:19:15;10.30;76.30
13446;DHT22;6795;51.232;3.764;2023-04-03T17:21:45;10.30;74.80
13446;DHT22;6795;51.232;3.764;2023-04-03T17:24:15;10.20;77.20
13446;DHT22;6795;51.232;3.764;2023-04-03T17:26:43;10.20;74.50
13446;DHT22;6795;51.232;3.764;2023-04-03T17:29:12;10.10;73.10
13446;DHT22;6795;51.232;3.764;2023-04-03T17:31:41;10.10;74.50
13446;DHT22;6795;51.232;3.764;2023-04-03T17:34:09;10.20;75.30
13446;DHT22;6795;51.232;3.764;2023-04-03T17:36:39;10.20;76.40
13446;DHT22;6795;51.232;3.764;2023-04-03T17:39:09;10.10;77.60
13446;DHT22;6795;51.232;3.764;2023-04-03T17:41:38;9.90;78.10
13446;DHT22;6795;51.232;3.764;2023-04-03T17:44:06;9.90;79.70
13446;DHT22;6795;51.232;3.764;2023-04-03T17:46:35;9.80;80.90
13446;DHT22;6795;51.232;3.764;2023-04-03T17:49:03;9.70;79.80
13446;DHT22;6795;51.232;3.764;2023-04-03T17:51:33;9.60;80.60
13446;DHT22;6795;51.232;3.764;2023-04-03T17:54:01;9.50;81.30
13446;DHT22;6795;51.232;3.764;2023-04-03T17:56:31;9.30;81.80
13446;DHT22;6795;51.232;3.764;2023-04-03T18:11:32;9.10;82.80
13446;DHT22;6795;51.232;3.764;2023-04-03T18:14:02;8.10;86.50
13446;DHT22;6795;51.232;3.764;2023-04-03T18:16:31;8.00;87.20
13446;DHT22;6795;51.232;3.764;2023-04-03T18:19:00;7.90;87.90
13446;DHT22;6795;51.232;3.764;2023-04-03T18:21:48;7.80;89.10
13446;DHT22;6795;51.232;3.764;2023-04-03T18:24:18;7.70;89.90
13446;DHT22;6795;51.232;3.764;2023-04-03T18:26:50;7.60;90.20
13446;DHT22;6795;51.232;3.764;2023-04-03T18:29:21;7.60;90.40
13446;DHT22;6795;51.232;3.764;2023-04-03T18:31:51;7.50;90.30
13446;DHT22;6795;51.232;3.764;2023-04-03T18:34:21;7.40;90.70
13446;DHT22;6795;51.232;3.764;2023-04-03T18:36:49;7.40;90.70
13446;DHT22;6795;51.232;3.764;2023-04-03T18:39:18;7.30;91.00
13446;DHT22;6795;51.232;3.764;2023-04-03T18:41:51;7.20;90.80
13446;DHT22;6795;51.232;3.764;2023-04-03T18:44:22;7.20;90.80
13446;DHT22;6795;51.232;3.764;2023-04-03T18:46:51;7.10;91.20
13446;DHT22;6795;51.232;3.764;2023-04-03T18:49:23;7.10;91.10
13446;DHT22;6795;51.232;3.764;2023-04-03T18:51:51;7.00;91.50
13446;DHT22;6795;51.232;3.764;2023-04-03T18:54:20;7.00;91.30
13446;DHT22;6795;51.232;3.764;2023-04-03T18:56:49;6.90;91.50
13446;DHT22;6795;51.232;3.764;2023-04-03T18:59:19;6.90;91.70
13446;DHT22;6795;51.232;3.764;2023-04-03T19:01:47;6.80;92.00
13446;DHT22;6795;51.232;3.764;2023-04-03T19:04:16;6.80;92.20
13446;DHT22;6795;51.232;3.764;2023-04-03T19:06:46;6.70;92.60
13446;DHT22;6795;51.232;3.764;2023-04-03T19:09:14;6.60;92.90
13446;DHT22;6795;51.232;3.764;2023-04-03T19:11:44;6.60;93.10
13446;DHT22;6795;51.232;3.764;2023-04-03T19:14:13;6.50;93.10
13446;DHT22;6795;51.232;3.764;2023-04-03T19:16:44;6.50;93.40
13446;DHT22;6795;51.232;3.764;2023-04-03T19:19:13;6.40;93.80
13446;DHT22;6795;51.232;3.764;2023-04-03T19:24:11;6.40;93.60
13446;DHT22;6795;51.232;3.764;2023-04-03T19:26:40;6.40;94.20
13446;DHT22;6795;51.232;3.764;2023-04-03T19:29:10;6.50;94.00
13446;DHT22;6795;51.232;3.764;2023-04-03T19:31:39;6.50;93.70
13446;DHT22;6795;51.232;3.764;2023-04-03T19:34:09;6.50;93.70
13446;DHT22;6795;51.232;3.764;2023-04-03T19:36:38;6.60;93.60
13446;DHT22;6795;51.232;3.764;2023-04-03T19:39:08;6.60;93.80
13446;DHT22;6795;51.232;3.764;2023-04-03T19:41:40;6.50;94.00
13446;DHT22;6795;51.232;3.764;2023-04-03T19:44:10;6.50;93.80
13446;DHT22;6795;51.232;3.764;2023-04-03T19:46:39;6.50;93.90
13446;DHT22;6795;51.232;3.764;2023-04-03T19:49:18;6.40;94.10
13446;DHT22;6795;51.232;3.764;2023-04-03T19:51:47;6.40;94.20
13446;DHT22;6795;51.232;3.764;2023-04-03T19:54:16;6.40;94.20
13446;DHT22;6795;51.232;3.764;2023-04-03T19:56:45;6.40;94.30
13446;DHT22;6795;51.232;3.764;2023-04-03T19:59:13;6.30;94.50
13446;DHT22;6795;51.232;3.764;2023-04-03T20:01:43;6.30;94.30
13446;DHT22;6795;51.232;3.764;2023-04-03T20:04:13;6.30;94.10
13446;DHT22;6795;51.232;3.764;2023-04-03T20:06:43;6.20;94.70
13446;DHT22;6795;51.232;3.764;2023-04-03T20:09:12;6.20;94.80
13446;DHT22;6795;51.232;3.764;2023-04-03T20:11:42;6.20;95.10
13446;DHT22;6795;51.232;3.764;2023-04-03T20:14:13;6.20;94.80
13446;DHT22;6795;51.232;3.764;2023-04-03T20:16:42;6.10;95.50
13446;DHT22;6795;51.232;3.764;2023-04-03T20:19:11;6.00;95.60
13446;DHT22;6795;51.232;3.764;2023-04-03T20:21:40;6.00;95.70
13446;DHT22;6795;51.232;3.764;2023-04-03T20:24:10;5.90;95.90
13446;DHT22;6795;51.232;3.764;2023-04-03T20:26:41;5.90;96.30
13446;DHT22;6795;51.232;3.764;2023-04-03T20:29:13;5.80;96.10
13446;DHT22;6795;51.232;3.764;2023-04-03T20:31:43;5.80;96.30
13446;DHT22;6795;51.232;3.764;2023-04-03T20:34:12;5.80;96.10
13446;DHT22;6795;51.232;3.764;2023-04-03T20:36:45;5.80;96.30
13446;DHT22;6795;51.232;3.764;2023-04-03T20:39:36;5.70;96.60
13446;DHT22;6795;51.232;3.764;2023-04-03T20:42:05;5.70;96.80
13446;DHT22;6795;51.232;3.764;2023-04-03T20:44:36;5.70;96.50
13446;DHT22;6795;51.232;3.764;2023-04-03T20:47:04;5.70;96.40
13446;DHT22;6795;51.232;3.764;2023-04-03T20:49:33;5.70;96.90
13446;DHT22;6795;51.232;3.764;2023-04-03T20:52:02;5.70;96.70
13446;DHT22;6795;51.232;3.764;2023-04-03T20:54:30;5.70;96.90
13446;DHT22;6795;51.232;3.764;2023-04-03T20:57:01;5.60;97.50
13446;DHT22;6795;51.232;3.764;2023-04-03T20:59:29;5.50;97.70
13446;DHT22;6795;51.232;3.764;2023-04-03T21:02:00;5.50;97.90
13446;DHT22;6795;51.232;3.764;2023-04-03T21:04:32;5.50;98.10
13446;DHT22;6795;51.232;3.764;2023-04-03T21:19:06;5.00;99.90
13446;DHT22;6795;51.232;3.764;2023-04-03T21:21:36;5.00;99.90
13446;DHT22;6795;51.232;3.764;2023-04-03T21:24:06;5.00;99.90
13446;DHT22;6795;51.232;3.764;2023-04-03T21:26:37;4.90;99.90
13446;DHT22;6795;51.232;3.764;2023-04-03T21:29:06;4.90;99.90
13446;DHT22;6795;51.232;3.764;2023-04-03T21:31:49;4.80;99.90
13446;DHT22;6795;51.232;3.764;2023-04-03T21:34:20;4.70;99.90
13446;DHT22;6795;51.232;3.764;2023-04-03T21:36:49;4.70;99.90
13446;DHT22;6795;51.232;3.764;2023-04-03T21:39:19;4.70;99.90
13446;DHT22;6795;51.232;3.764;2023-04-03T21:41:48;4.70;99.90
13446;DHT22;6795;51.232;3.764;2023-04-03T21:44:16;4.60;99.90
13446;DHT22;6795;51.232;3.764;2023-04-03T21:46:45;4.60;99.90
13446;DHT22;6795;51.232;3.764;2023-04-03T21:49:15;4.50;99.90
13446;DHT22;6795;51.232;3.764;2023-04-03T21:51:45;4.50;99.90
13446;DHT22;6795;51.232;3.764;2023-04-03T21:54:14;4.50;99.90
13446;DHT22;6795;51.232;3.764;2023-04-03T21:56:42;4.50;99.90
13446;DHT22;6795;51.232;3.764;2023-04-03T21:59:11;4.50;99.90
13446;DHT22;6795;51.232;3.764;2023-04-03T22:01:41;4.60;99.90
13446;DHT22;6795;51.232;3.764;2023-04-03T22:04:10;4.60;99.90
13446;DHT22;6795;51.232;3.764;2023-04-03T22:06:38;4.70;99.90
13446;DHT22;6795;51.232;3.764;2023-04-03T22:09:09;4.60;99.90
13446;DHT22;6795;51.232;3.764;2023-04-03T22:11:37;4.60;99.90
13446;DHT22;6795;51.232;3.764;2023-04-03T22:14:12;4.60;99.90
13446;DHT22;6795;51.232;3.764;2023-04-03T22:16:40;4.60;99.90
13446;DHT22;6795;51.232;3.764;2023-04-03T22:19:12;4.50;99.90
13446;DHT22;6795;51.232;3.764;2023-04-03T22:21:41;4.50;99.90
13446;DHT22;6795;51.232;3.764;2023-04-03T22:24:10;4.40;99.90
13446;DHT22;6795;51.232;3.764;2023-04-03T22:26:39;4.40;99.90
13446;DHT22;6795;51.232;3.764;2023-04-03T22:29:10;4.40;99.90
13446;DHT22;6795;51.232;3.764;2023-04-03T22:31:39;4.20;99.90
13446;DHT22;6795;51.232;3.764;2023-04-03T22:34:08;4.00;99.90
13446;DHT22;6795;51.232;3.764;2023-04-03T22:36:37;3.90;99.90
13446;DHT22;6795;51.232;3.764;2023-04-03T22:39:10;3.90;99.90
13446;DHT22;6795;51.232;3.764;2023-04-03T22:41:41;3.80;99.90
13446;DHT22;6795;51.232;3.764;2023-04-03T22:44:11;3.80;99.90
13446;DHT22;6795;51.232;3.764;2023-04-03T22:56:36;3.80;99.90
13446;DHT22;6795;51.232;3.764;2023-04-03T22:59:05;3.70;99.90
13446;DHT22;6795;51.232;3.764;2023-04-03T23:01:34;3.70;99.90
13446;DHT22;6795;51.232;3.764;2023-04-03T23:04:06;3.60;99.90
13446;DHT22;6795;51.232;3.764;2023-04-03T23:06:34;3.50;99.90
13446;DHT22;6795;51.232;3.764;2023-04-03T23:09:04;3.50;99.90
13446;DHT22;6795;51.232;3.764;2023-04-03T23:11:32;3.50;99.90
13446;DHT22;6795;51.232;3.764;2023-04-03T23:14:02;3.40;99.90
13446;DHT22;6795;51.232;3.764;2023-04-03T23:16:31;3.40;99.90
13446;DHT22;6795;51.232;3.764;2023-04-03T23:19:00;3.30;99.90
13446;DHT22;6795;51.232;3.764;2023-04-03T23:21:29;3.30;99.90
13446;DHT22;6795;51.232;3.764;2023-04-03T23:23:57;3.20;99.90
13446;DHT22;6795;51.232;3.764;2023-04-03T23:26:26;3.20;99.90
13446;DHT22;6795;51.232;3.764;2023-04-03T23:28:54;3.10;99.90
13446;DHT22;6795;51.232;3.764;2023-04-03T23:31:24;3.10;99.90
13446;DHT22;6795;51.232;3.764;2023-04-03T23:36:21;2.90;99.90
13446;DHT22;6795;51.232;3.764;2023-04-03T23:38:49;2.90;99.90
13446;DHT22;6795;51.232;3.764;2023-04-03T23:41:18;2.90;99.90
13446;DHT22;6795;51.232;3.764;2023-04-03T23:43:46;2.90;99.90
13446;DHT22;6795;51.232;3.764;2023-04-03T23:46:15;2.90;99.90
13446;DHT22;6795;51.232;3.764;2023-04-03T23:48:45;2.80;99.90
13446;DHT22;6795;51.232;3.764;2023-04-03T23:51:14;2.80;99.90
13446;DHT22;6795;51.232;3.764;2023-04-03T23:53:42;2.80;99.90
13446;DHT22;6795;51.232;3.764;2023-04-03T23:56:12;2.70;99.90
13446;DHT22;6795;51.232;3.764;2023-04-03T23:58:40;2.60;99.90
